createdAt,value
2023-05-17T00:00:30.851Z,1017.37
2023-05-17T00:01:30.872Z,1017.36
2023-05-17T00:02:30.823Z,1017.35
2023-05-17T00:03:30.872Z,1017.37
2023-05-17T00:04:30.849Z,1017.37
2023-05-17T00:05:31.498Z,1017.37
2023-05-17T00:06:30.819Z,1017.36
2023-05-17T00:07:30.761Z,1017.32
2023-05-17T00:08:30.749Z,1017.37
2023-05-17T00:09:30.874Z,1017.29
2023-05-17T00:10:30.694Z,1017.33
2023-05-17T00:11:30.714Z,1017.36
2023-05-17T00:12:30.695Z,1017.32
2023-05-17T00:13:30.711Z,1017.30
2023-05-17T00:14:30.639Z,1017.30
2023-05-17T00:15:30.723Z,1017.31
2023-05-17T00:16:30.621Z,1017.30
2023-05-17T00:17:31.424Z,1017.24
2023-05-17T00:18:30.679Z,1017.24
2023-05-17T00:19:30.631Z,1017.27
2023-05-17T00:20:30.602Z,1017.26
2023-05-17T00:21:30.875Z,1017.27
2023-05-17T00:22:30.532Z,1017.30
2023-05-17T00:23:30.582Z,1017.26
2023-05-17T00:24:30.527Z,1017.27
2023-05-17T00:25:30.769Z,1017.33
2023-05-17T00:26:30.513Z,1017.31
2023-05-17T00:27:30.568Z,1017.34
2023-05-17T00:28:30.478Z,1017.32
2023-05-17T00:29:30.478Z,1017.39
2023-05-17T00:30:30.465Z,1017.33
2023-05-17T00:31:30.436Z,1017.39
2023-05-17T00:32:30.478Z,1017.34
2023-05-17T00:33:30.482Z,1017.35
2023-05-17T00:34:30.403Z,1017.42
2023-05-17T00:35:30.671Z,1017.39
2023-05-17T00:36:30.372Z,1017.34
2023-05-17T00:37:30.356Z,1017.35
2023-05-17T00:38:30.346Z,1017.35
2023-05-17T00:39:30.377Z,1017.37
2023-05-17T00:40:30.342Z,1017.38
2023-05-17T00:41:30.335Z,1017.39
2023-05-17T00:42:30.272Z,1017.39
2023-05-17T00:43:30.280Z,1017.40
2023-05-17T00:44:30.272Z,1017.36
2023-05-17T00:45:30.420Z,1017.38
2023-05-17T00:46:30.254Z,1017.39
2023-05-17T00:47:30.350Z,1017.41
2023-05-17T00:48:30.266Z,1017.36
2023-05-17T00:49:30.202Z,1017.40
2023-05-17T00:50:30.191Z,1017.43
2023-05-17T00:51:30.219Z,1017.41
2023-05-17T00:52:30.165Z,1017.41
2023-05-17T00:53:30.201Z,1017.39
2023-05-17T00:54:30.127Z,1017.41
2023-05-17T00:55:30.337Z,1017.36
2023-05-17T00:56:30.085Z,1017.32
2023-05-17T00:57:30.145Z,1017.37
2023-05-17T00:58:30.074Z,1017.35
2023-05-17T00:59:30.067Z,1017.37
2023-05-17T01:00:30.049Z,1017.30
2023-05-17T01:01:30.076Z,1017.33
2023-05-17T01:02:30.187Z,1017.33
2023-05-17T01:03:30.138Z,1017.29
2023-05-17T01:04:30.001Z,1017.37
2023-05-17T01:05:30.227Z,1017.32
2023-05-17T01:06:29.968Z,1017.39
2023-05-17T01:07:29.975Z,1017.36
2023-05-17T01:08:29.957Z,1017.32
2023-05-17T01:09:30.004Z,1017.33
2023-05-17T01:10:29.902Z,1017.30
2023-05-17T01:11:29.953Z,1017.32
2023-05-17T01:12:29.863Z,1017.38
2023-05-17T01:13:29.876Z,1017.35
2023-05-17T01:14:29.874Z,1017.34
2023-05-17T01:15:30.115Z,1017.33
2023-05-17T01:16:29.802Z,1017.37
2023-05-17T01:17:29.893Z,1017.46
2023-05-17T01:18:29.898Z,1017.39
2023-05-17T01:19:29.883Z,1017.41
2023-05-17T01:20:29.873Z,1017.44
2023-05-17T01:21:29.812Z,1017.38
2023-05-17T01:22:29.723Z,1017.36
2023-05-17T01:23:29.771Z,1017.39
2023-05-17T01:24:29.702Z,1017.41
2023-05-17T01:25:29.981Z,1017.39
2023-05-17T01:26:29.731Z,1017.45
2023-05-17T01:27:29.732Z,1017.50
2023-05-17T01:28:29.686Z,1017.50
2023-05-17T01:29:29.684Z,1017.47
2023-05-17T01:30:29.641Z,1017.53
2023-05-17T01:31:29.702Z,1017.55
2023-05-17T01:32:29.711Z,1017.56
2023-05-17T01:33:29.737Z,1017.49
2023-05-17T01:34:29.576Z,1017.52
2023-05-17T01:35:29.942Z,1017.55
2023-05-17T01:36:29.533Z,1017.55
2023-05-17T01:37:29.572Z,1017.54
2023-05-17T01:38:29.552Z,1017.58
2023-05-17T01:39:29.642Z,1017.58
2023-05-17T01:40:29.542Z,1017.59
2023-05-17T01:41:29.558Z,1017.62
2023-05-17T01:42:29.451Z,1017.57
2023-05-17T01:43:29.540Z,1017.60
2023-05-17T01:44:30.798Z,1017.58
2023-05-17T01:45:29.672Z,1017.59
2023-05-17T01:46:29.438Z,1017.58
2023-05-17T01:47:29.533Z,1017.61
2023-05-17T01:48:29.406Z,1017.62
2023-05-17T01:49:29.398Z,1017.64
2023-05-17T01:50:29.387Z,1017.60
2023-05-17T01:51:29.480Z,1017.61
2023-05-17T01:52:29.370Z,1017.66
2023-05-17T01:53:29.382Z,1017.67
2023-05-17T01:54:29.289Z,1017.69
2023-05-17T01:55:29.596Z,1017.68
2023-05-17T01:56:29.275Z,1017.71
2023-05-17T01:57:29.322Z,1017.75
2023-05-17T01:58:29.277Z,1017.79
2023-05-17T01:59:29.263Z,1017.79
2023-05-17T02:00:29.245Z,1017.78
2023-05-17T02:01:29.258Z,1017.82
2023-05-17T02:02:29.237Z,1017.82
2023-05-17T02:03:29.466Z,1017.78
2023-05-17T02:04:29.241Z,1017.83
2023-05-17T02:05:29.447Z,1017.87
2023-05-17T02:06:29.160Z,1017.88
2023-05-17T02:07:29.174Z,1017.88
2023-05-17T02:08:29.151Z,1017.93
2023-05-17T02:09:29.126Z,1017.91
2023-05-17T02:10:29.164Z,1017.91
2023-05-17T02:11:29.069Z,1017.91
2023-05-17T02:12:29.112Z,1017.94
2023-05-17T02:13:29.071Z,1017.94
2023-05-17T02:14:29.063Z,1017.99
2023-05-17T02:15:29.224Z,1017.99
2023-05-17T02:16:29.028Z,1017.99
2023-05-17T02:17:29.111Z,1018.00
2023-05-17T02:18:29.272Z,1017.98
2023-05-17T02:19:29.103Z,1018.00
2023-05-17T02:20:29.013Z,1018.01
2023-05-17T02:21:28.985Z,1018.03
2023-05-17T02:22:28.980Z,1017.98
2023-05-17T02:23:28.934Z,1018.03
2023-05-17T02:24:28.957Z,1018.01
2023-05-17T02:25:29.209Z,1018.07
2023-05-17T02:26:28.927Z,1017.99
2023-05-17T02:27:28.922Z,1018.02
2023-05-17T02:28:28.870Z,1018.09
2023-05-17T02:29:28.829Z,1018.07
2023-05-17T02:30:28.884Z,1018.08
2023-05-17T02:31:28.806Z,1018.17
2023-05-17T02:32:28.935Z,1018.15
2023-05-17T02:33:28.906Z,1018.16
2023-05-17T02:34:28.791Z,1018.20
2023-05-17T02:35:29.010Z,1018.17
2023-05-17T02:36:28.800Z,1018.19
2023-05-17T02:37:28.774Z,1018.21
2023-05-17T02:38:28.742Z,1018.17
2023-05-17T02:39:28.768Z,1018.24
2023-05-17T02:40:28.718Z,1018.27
2023-05-17T02:41:28.671Z,1018.23
2023-05-17T02:42:28.710Z,1018.24
2023-05-17T02:43:28.672Z,1018.25
2023-05-17T02:44:28.693Z,1018.32
2023-05-17T02:45:28.885Z,1018.27
2023-05-17T02:46:28.644Z,1018.26
2023-05-17T02:47:28.727Z,1018.32
2023-05-17T02:48:28.602Z,1018.32
2023-05-17T02:49:28.571Z,1018.34
2023-05-17T02:50:28.612Z,1018.31
2023-05-17T02:51:28.588Z,1018.29
2023-05-17T02:52:28.573Z,1018.31
2023-05-17T02:53:28.509Z,1018.34
2023-05-17T02:54:28.577Z,1018.33
2023-05-17T02:55:28.718Z,1018.29
2023-05-17T02:56:28.517Z,1018.33
2023-05-17T02:57:28.565Z,1018.34
2023-05-17T02:58:28.481Z,1018.36
2023-05-17T02:59:28.460Z,1018.36
2023-05-17T03:00:28.444Z,1018.33
2023-05-17T03:01:28.402Z,1018.36
2023-05-17T03:02:28.581Z,1018.41
2023-05-17T03:03:28.652Z,1018.40
2023-05-17T03:04:28.440Z,1018.42
2023-05-17T03:05:28.749Z,1018.47
2023-05-17T03:06:28.367Z,1018.45
2023-05-17T03:07:28.370Z,1018.46
2023-05-17T03:08:28.348Z,1018.45
2023-05-17T03:09:28.354Z,1018.44
2023-05-17T03:10:28.367Z,1018.46
2023-05-17T03:11:28.277Z,1018.49
2023-05-17T03:12:29.473Z,1018.48
2023-05-17T03:13:28.294Z,1018.51
2023-05-17T03:14:28.278Z,1018.49
2023-05-17T03:15:28.435Z,1018.47
2023-05-17T03:16:28.228Z,1018.49
2023-05-17T03:17:28.269Z,1018.50
2023-05-17T03:18:28.396Z,1018.55
2023-05-17T03:19:28.242Z,1018.52
2023-05-17T03:20:28.243Z,1018.54
2023-05-17T03:21:28.200Z,1018.56
2023-05-17T03:22:28.221Z,1018.57
2023-05-17T03:23:28.139Z,1018.61
2023-05-17T03:24:28.147Z,1018.58
2023-05-17T03:25:28.323Z,1018.65
2023-05-17T03:26:28.122Z,1018.66
2023-05-17T03:27:28.165Z,1018.68
2023-05-17T03:28:28.071Z,1018.67
2023-05-17T03:29:28.050Z,1018.70
2023-05-17T03:30:28.206Z,1018.71
2023-05-17T03:31:28.023Z,1018.71
2023-05-17T03:32:28.091Z,1018.73
2023-05-17T03:33:28.134Z,1018.78
2023-05-17T03:34:27.999Z,1018.74
2023-05-17T03:35:28.265Z,1018.75
2023-05-17T03:36:27.986Z,1018.80
2023-05-17T03:37:27.926Z,1018.80
2023-05-17T03:38:27.958Z,1018.83
2023-05-17T03:39:27.975Z,1018.81
2023-05-17T03:40:27.905Z,1018.80
2023-05-17T03:41:27.874Z,1018.82
2023-05-17T03:42:27.907Z,1018.81
2023-05-17T03:43:27.853Z,1018.77
2023-05-17T03:44:27.888Z,1018.84
2023-05-17T03:45:28.289Z,1018.86
2023-05-17T03:46:27.838Z,1018.90
2023-05-17T03:47:27.847Z,1018.88
2023-05-17T03:48:28.050Z,1018.94
2023-05-17T03:49:27.790Z,1018.92
2023-05-17T03:50:27.806Z,1018.90
2023-05-17T03:51:27.785Z,1018.99
2023-05-17T03:52:27.786Z,1019.00
2023-05-17T03:53:27.754Z,1018.98
2023-05-17T03:54:27.752Z,1018.96
2023-05-17T03:55:27.908Z,1019.01
2023-05-17T03:56:27.735Z,1019.00
2023-05-17T03:57:27.705Z,1019.03
2023-05-17T03:58:27.684Z,1018.99
2023-05-17T03:59:27.683Z,1019.06
2023-05-17T04:00:27.658Z,1019.05
2023-05-17T04:01:27.635Z,1019.06
2023-05-17T04:02:27.698Z,1019.07
2023-05-17T04:03:27.617Z,1019.06
2023-05-17T04:04:27.784Z,1019.03
2023-05-17T04:05:27.788Z,1019.05
2023-05-17T04:06:27.576Z,1019.04
2023-05-17T04:07:27.566Z,1019.11
2023-05-17T04:08:27.539Z,1019.14
2023-05-17T04:09:27.567Z,1019.21
2023-05-17T04:10:27.547Z,1019.19
2023-05-17T04:11:27.481Z,1019.23
2023-05-17T04:12:27.523Z,1019.22
2023-05-17T04:13:27.531Z,1019.22
2023-05-17T04:14:27.463Z,1019.24
2023-05-17T04:15:27.704Z,1019.23
2023-05-17T04:16:27.456Z,1019.27
2023-05-17T04:17:27.422Z,1019.24
2023-05-17T04:18:27.491Z,1019.25
2023-05-17T04:19:27.458Z,1019.24
2023-05-17T04:20:27.413Z,1019.31
2023-05-17T04:21:27.406Z,1019.26
2023-05-17T04:22:27.346Z,1019.24
2023-05-17T04:23:27.346Z,1019.30
2023-05-17T04:24:27.334Z,1019.26
2023-05-17T04:25:27.518Z,1019.26
2023-05-17T04:26:27.358Z,1019.30
2023-05-17T04:27:27.404Z,1019.30
2023-05-17T04:28:27.317Z,1019.27
2023-05-17T04:29:27.265Z,1019.27
2023-05-17T04:30:27.373Z,1019.28
2023-05-17T04:31:27.222Z,1019.30
2023-05-17T04:32:27.362Z,1019.28
2023-05-17T04:33:27.350Z,1019.32
2023-05-17T04:34:27.205Z,1019.33
2023-05-17T04:35:27.435Z,1019.33
2023-05-17T04:36:27.177Z,1019.34
2023-05-17T04:37:27.140Z,1019.39
2023-05-17T04:38:27.178Z,1019.41
2023-05-17T04:39:28.817Z,1019.39
2023-05-17T04:40:27.172Z,1019.44
2023-05-17T04:41:27.132Z,1019.43
2023-05-17T04:42:27.101Z,1019.53
2023-05-17T04:43:27.039Z,1019.47
2023-05-17T04:44:27.093Z,1019.50
2023-05-17T04:45:27.180Z,1019.52
2023-05-17T04:46:27.030Z,1019.59
2023-05-17T04:47:27.780Z,1019.56
2023-05-17T04:48:27.164Z,1019.59
2023-05-17T04:49:26.970Z,1019.52
2023-05-17T04:50:27.041Z,1019.60
2023-05-17T04:51:26.991Z,1019.58
2023-05-17T04:52:26.986Z,1019.61
2023-05-17T04:53:26.961Z,1019.63
2023-05-17T04:54:26.950Z,1019.67
2023-05-17T04:55:27.148Z,1019.68
2023-05-17T04:56:26.915Z,1019.69
2023-05-17T04:57:26.990Z,1019.68
2023-05-17T04:58:26.901Z,1019.75
2023-05-17T04:59:26.885Z,1019.77
2023-05-17T05:00:26.861Z,1019.80
2023-05-17T05:01:26.847Z,1019.79
2023-05-17T05:02:26.931Z,1019.83
2023-05-17T05:03:26.882Z,1019.79
2023-05-17T05:04:26.853Z,1019.85
2023-05-17T05:05:26.993Z,1019.87
2023-05-17T05:06:26.799Z,1019.90
2023-05-17T05:07:26.765Z,1019.93
2023-05-17T05:08:26.753Z,1019.87
2023-05-17T05:09:26.731Z,1019.95
2023-05-17T05:10:26.839Z,1019.99
2023-05-17T05:11:27.025Z,1019.94
2023-05-17T05:12:26.703Z,1019.99
2023-05-17T05:13:26.679Z,1020.01
2023-05-17T05:14:26.660Z,1020.00
2023-05-17T05:15:26.853Z,1020.09
2023-05-17T05:16:26.625Z,1020.06
2023-05-17T05:17:26.641Z,1020.06
2023-05-17T05:18:26.758Z,1020.04
2023-05-17T05:19:26.595Z,1020.07
2023-05-17T05:20:27.970Z,1020.08
2023-05-17T05:21:26.601Z,1020.11
2023-05-17T05:22:26.551Z,1020.16
2023-05-17T05:23:26.529Z,1020.16
2023-05-17T05:24:26.529Z,1020.16
2023-05-17T05:25:26.741Z,1020.19
2023-05-17T05:26:26.531Z,1020.17
2023-05-17T05:27:26.518Z,1020.14
2023-05-17T05:28:26.501Z,1020.20
2023-05-17T05:29:26.448Z,1020.28
2023-05-17T05:30:26.468Z,1020.29
2023-05-17T05:31:26.417Z,1020.21
2023-05-17T05:32:26.487Z,1020.24
2023-05-17T05:33:26.646Z,1020.23
2023-05-17T05:34:26.396Z,1020.16
2023-05-17T05:35:26.606Z,1020.22
2023-05-17T05:36:26.371Z,1020.23
2023-05-17T05:37:26.322Z,1020.28
2023-05-17T05:38:26.369Z,1020.37
2023-05-17T05:39:26.335Z,1020.38
2023-05-17T05:40:26.467Z,1020.40
2023-05-17T05:41:26.309Z,1020.38
2023-05-17T05:42:26.291Z,1020.38
2023-05-17T05:43:26.285Z,1020.34
2023-05-17T05:44:26.272Z,1020.43
2023-05-17T05:45:26.275Z,1020.35
2023-05-17T05:46:26.255Z,1020.43
2023-05-17T05:47:26.266Z,1020.38
2023-05-17T05:48:26.388Z,1020.43
2023-05-17T05:49:26.164Z,1020.43
2023-05-17T05:50:26.230Z,1020.47
2023-05-17T05:51:26.184Z,1020.47
2023-05-17T05:52:26.179Z,1020.48
2023-05-17T05:53:26.148Z,1020.43
2023-05-17T05:54:26.143Z,1020.50
2023-05-17T05:55:26.115Z,1020.51
2023-05-17T05:56:26.102Z,1020.54
2023-05-17T05:57:26.119Z,1020.52
2023-05-17T05:58:26.127Z,1020.55
2023-05-17T05:59:26.069Z,1020.53
2023-05-17T06:00:26.141Z,1020.56
2023-05-17T06:01:26.031Z,1020.50
2023-05-17T06:02:26.036Z,1020.54
2023-05-17T06:03:26.069Z,1020.59
2023-05-17T06:04:36.344Z,1020.59
2023-05-17T06:05:27.017Z,1020.60
2023-05-17T06:06:26.080Z,1020.58
2023-05-17T06:07:25.986Z,1020.59
2023-05-17T06:08:25.940Z,1020.63
2023-05-17T06:09:25.957Z,1020.58
2023-05-17T06:10:26.003Z,1020.59
2023-05-17T06:11:25.905Z,1020.63
2023-05-17T06:12:25.922Z,1020.60
2023-05-17T06:13:25.914Z,1020.61
2023-05-17T06:14:25.868Z,1020.58
2023-05-17T06:15:26.854Z,1020.69
2023-05-17T06:16:25.849Z,1020.65
2023-05-17T06:17:25.866Z,1020.70
2023-05-17T06:18:25.924Z,1020.74
2023-05-17T06:19:26.010Z,1020.72
2023-05-17T06:20:25.838Z,1020.78
2023-05-17T06:21:25.901Z,1020.70
2023-05-17T06:22:25.771Z,1020.78
2023-05-17T06:23:25.795Z,1020.80
2023-05-17T06:24:25.763Z,1020.79
2023-05-17T06:25:25.793Z,1020.77
2023-05-17T06:26:25.684Z,1020.75
2023-05-17T06:27:25.774Z,1020.75
2023-05-17T06:28:25.661Z,1020.79
2023-05-17T06:29:25.660Z,1020.81
2023-05-17T06:30:25.660Z,1020.86
2023-05-17T06:31:25.641Z,1020.86
2023-05-17T06:32:26.394Z,1020.82
2023-05-17T06:33:26.021Z,1020.84
2023-05-17T06:34:25.567Z,1020.87
2023-05-17T06:35:25.583Z,1020.88
2023-05-17T06:36:25.577Z,1020.89
2023-05-17T06:37:25.582Z,1020.89
2023-05-17T06:38:25.524Z,1020.87
2023-05-17T06:39:25.609Z,1020.94
2023-05-17T06:40:25.505Z,1020.95
2023-05-17T06:41:25.566Z,1020.94
2023-05-17T06:42:25.494Z,1020.97
2023-05-17T06:43:25.496Z,1020.94
2023-05-17T06:44:25.458Z,1021.03
2023-05-17T06:45:25.578Z,1020.97
2023-05-17T06:46:25.439Z,1021.01
2023-05-17T06:47:26.239Z,1021.04
2023-05-17T06:48:25.461Z,1021.01
2023-05-17T06:49:25.443Z,1020.96
2023-05-17T06:50:25.387Z,1020.97
2023-05-17T06:51:25.446Z,1021.01
2023-05-17T06:52:25.442Z,1021.03
2023-05-17T06:53:25.370Z,1021.05
2023-05-17T06:54:25.361Z,1021.07
2023-05-17T06:55:25.311Z,1021.00
2023-05-17T06:56:25.336Z,1021.07
2023-05-17T06:57:25.359Z,1021.03
2023-05-17T06:58:25.234Z,1021.08
2023-05-17T06:59:25.288Z,1021.04
2023-05-17T07:00:25.217Z,1021.04
2023-05-17T07:01:25.227Z,1021.12
2023-05-17T07:02:25.243Z,1021.13
2023-05-17T07:03:25.324Z,1021.13
2023-05-17T07:04:25.283Z,1021.10
2023-05-17T07:05:25.246Z,1021.15
2023-05-17T07:06:25.145Z,1021.14
2023-05-17T07:07:25.157Z,1021.16
2023-05-17T07:08:25.142Z,1021.20
2023-05-17T07:09:25.195Z,1021.17
2023-05-17T07:10:25.115Z,1021.19
2023-05-17T07:11:26.079Z,1021.21
2023-05-17T07:12:25.064Z,1021.27
2023-05-17T07:13:25.073Z,1021.29
2023-05-17T07:14:25.089Z,1021.29
2023-05-17T07:15:25.086Z,1021.35
2023-05-17T07:16:25.025Z,1021.32
2023-05-17T07:17:25.058Z,1021.34
2023-05-17T07:18:25.104Z,1021.31
2023-05-17T07:19:25.084Z,1021.37
2023-05-17T07:20:25.942Z,1021.38
2023-05-17T07:21:24.998Z,1021.39
2023-05-17T07:22:24.954Z,1021.40
2023-05-17T07:23:24.959Z,1021.44
2023-05-17T07:24:24.929Z,1021.43
2023-05-17T07:25:24.940Z,1021.49
2023-05-17T07:26:24.876Z,1021.47
2023-05-17T07:27:24.947Z,1021.47
2023-05-17T07:28:24.852Z,1021.46
2023-05-17T07:29:24.860Z,1021.50
2023-05-17T07:30:24.836Z,1021.49
2023-05-17T07:31:24.844Z,1021.47
2023-05-17T07:32:24.838Z,1021.52
2023-05-17T07:33:24.857Z,1021.46
2023-05-17T07:34:24.816Z,1021.50
2023-05-17T07:35:24.802Z,1021.49
2023-05-17T07:36:24.792Z,1021.59
2023-05-17T07:37:24.753Z,1021.53
2023-05-17T07:38:24.754Z,1021.49
2023-05-17T07:39:24.792Z,1021.50
2023-05-17T07:40:24.697Z,1021.48
2023-05-17T07:41:24.715Z,1021.47
2023-05-17T07:42:24.687Z,1021.47
2023-05-17T07:43:25.382Z,1021.49
2023-05-17T07:44:24.658Z,1021.49
2023-05-17T07:45:24.724Z,1021.52
2023-05-17T07:46:24.602Z,1021.51
2023-05-17T07:47:24.651Z,1021.50
2023-05-17T07:48:24.643Z,1021.51
2023-05-17T07:49:24.701Z,1021.53
2023-05-17T07:50:24.759Z,1021.58
2023-05-17T07:51:28.620Z,1021.56
2023-05-17T07:52:24.577Z,1021.54
2023-05-17T07:53:24.568Z,1021.57
2023-05-17T07:54:24.511Z,1021.61
2023-05-17T07:55:24.502Z,1021.68
2023-05-17T07:56:24.497Z,1021.69
2023-05-17T07:57:24.561Z,1021.75
2023-05-17T07:58:24.448Z,1021.69
2023-05-17T07:59:24.493Z,1021.68
2023-05-17T08:00:24.456Z,1021.67
2023-05-17T08:01:24.439Z,1021.77
2023-05-17T08:02:24.426Z,1021.73
2023-05-17T08:03:24.528Z,1021.68
2023-05-17T08:04:25.596Z,1021.80
2023-05-17T08:05:24.392Z,1021.75
2023-05-17T08:06:25.091Z,1021.83
2023-05-17T08:07:24.396Z,1021.84
2023-05-17T08:08:25.022Z,1021.81
2023-05-17T08:09:24.353Z,1021.81
2023-05-17T08:10:24.397Z,1021.79
2023-05-17T08:11:24.312Z,1021.81
2023-05-17T08:12:24.244Z,1021.79
2023-05-17T08:13:24.249Z,1021.89
2023-05-17T08:14:24.261Z,1021.82
2023-05-17T08:15:24.270Z,1021.87
2023-05-17T08:16:24.217Z,1021.90
2023-05-17T08:17:24.257Z,1021.88
2023-05-17T08:18:24.310Z,1021.86
2023-05-17T08:19:24.318Z,1021.84
2023-05-17T08:20:24.195Z,1021.85
2023-05-17T08:21:24.178Z,1021.85
2023-05-17T08:22:24.141Z,1021.91
2023-05-17T08:23:24.129Z,1021.96
2023-05-17T08:24:24.115Z,1021.93
2023-05-17T08:25:24.154Z,1021.87
2023-05-17T08:26:24.067Z,1021.89
2023-05-17T08:27:24.136Z,1021.87
2023-05-17T08:28:24.038Z,1021.87
2023-05-17T08:29:24.049Z,1021.88
2023-05-17T08:30:28.917Z,1021.89
2023-05-17T08:31:25.014Z,1021.89
2023-05-17T08:32:24.059Z,1021.87
2023-05-17T08:33:24.203Z,1021.88
2023-05-17T08:34:23.980Z,1021.90
2023-05-17T08:35:26.280Z,1021.91
2023-05-17T08:36:23.919Z,1021.88
2023-05-17T08:37:23.956Z,1021.76
2023-05-17T08:38:23.966Z,1021.79
2023-05-17T08:39:23.949Z,1021.81
2023-05-17T08:40:24.031Z,1021.81
2023-05-17T08:41:23.909Z,1021.79
2023-05-17T08:42:23.880Z,1021.88
2023-05-17T08:43:25.256Z,1021.90
2023-05-17T08:44:23.838Z,1021.93
2023-05-17T08:45:23.974Z,1021.92
2023-05-17T08:46:23.887Z,1021.96
2023-05-17T08:47:23.896Z,1021.90
2023-05-17T08:48:23.850Z,1021.93
2023-05-17T09:42:14.068Z,1022.26
2023-05-17T09:43:13.948Z,1022.27
2023-05-17T09:44:13.946Z,1022.28
2023-05-17T09:45:13.896Z,1022.33
2023-05-17T09:46:13.921Z,1022.32
2023-05-17T09:47:13.879Z,1022.30
2023-05-17T09:48:14.069Z,1022.34
2023-05-17T09:49:13.844Z,1022.34
2023-05-17T09:50:13.867Z,1022.35
2023-05-17T09:51:13.804Z,1022.29
2023-05-17T09:52:13.839Z,1022.28
2023-05-17T09:53:14.472Z,1022.25
2023-05-17T09:54:13.826Z,1022.24
2023-05-17T09:56:24.407Z,1022.23
2023-05-17T09:57:24.432Z,1022.23
2023-05-17T09:58:24.368Z,1022.26
2023-05-17T09:59:24.444Z,1022.27
2023-05-17T10:00:24.401Z,1022.28
2023-05-17T10:01:24.365Z,1022.27
2023-05-17T10:02:24.372Z,1022.32
2023-05-17T10:03:24.428Z,1022.24
2023-05-17T10:04:24.293Z,1022.24
2023-05-17T10:05:24.551Z,1022.23
2023-05-17T10:06:39.040Z,1022.16
2023-05-17T10:07:25.300Z,1022.18
2023-05-17T10:08:24.260Z,1022.27
2023-05-17T10:09:24.987Z,1022.22
2023-05-17T10:10:24.211Z,1022.23
2023-05-17T10:11:24.282Z,1022.19
2023-05-17T10:12:25.625Z,1022.23
2023-05-17T10:13:24.186Z,1022.21
2023-05-17T10:14:24.212Z,1022.24
2023-05-17T10:15:24.163Z,1022.15
2023-05-17T10:16:24.132Z,1022.05
2023-05-17T10:17:24.257Z,1022.08
2023-05-17T10:18:24.200Z,1022.09
2023-05-17T10:19:24.314Z,1022.09
2023-05-17T10:20:24.105Z,1022.11
2023-05-17T10:21:24.080Z,1022.14
2023-05-17T10:22:24.221Z,1022.18
2023-05-17T10:23:24.170Z,1022.21
2023-05-17T10:24:24.055Z,1022.26
2023-05-17T10:25:24.070Z,1022.24
2023-05-17T10:26:24.030Z,1022.27
2023-05-17T10:27:24.005Z,1022.23
2023-05-17T10:28:23.987Z,1022.30
2023-05-17T10:29:24.078Z,1022.24
2023-05-17T10:30:23.947Z,1022.23
2023-05-17T10:31:23.986Z,1022.23
2023-05-17T10:32:23.982Z,1022.27
2023-05-17T10:33:23.949Z,1022.27
2023-05-17T10:34:23.994Z,1022.29
2023-05-17T10:35:23.919Z,1022.31
2023-05-17T10:36:23.850Z,1022.24
2023-05-17T10:37:23.934Z,1022.30
2023-05-17T10:38:28.922Z,1022.27
2023-05-17T10:39:24.886Z,1022.21
2023-05-17T10:40:24.172Z,1022.30
2023-05-17T10:41:23.837Z,1022.28
2023-05-17T10:42:23.766Z,1022.34
2023-05-17T10:43:24.614Z,1022.30
2023-05-17T10:44:23.767Z,1022.29
2023-05-17T10:45:23.765Z,1022.26
2023-05-17T10:46:23.757Z,1022.30
2023-05-17T10:47:23.799Z,1022.25
2023-05-17T10:48:23.740Z,1022.32
2023-05-17T10:49:24.716Z,1022.29
2023-05-17T10:50:23.651Z,1022.25
2023-05-17T10:51:23.697Z,1022.26
2023-05-17T10:52:23.680Z,1022.24
2023-05-17T10:53:23.678Z,1022.24
2023-05-17T10:54:23.619Z,1022.25
2023-05-17T10:55:25.582Z,1022.21
2023-05-17T10:56:23.612Z,1022.18
2023-05-17T10:57:23.626Z,1022.22
2023-05-17T10:58:23.602Z,1022.30
2023-05-17T10:59:23.606Z,1022.23
2023-05-17T11:00:23.558Z,1022.22
2023-05-17T11:01:23.538Z,1022.25
2023-05-17T11:02:23.552Z,1022.25
2023-05-17T11:03:23.516Z,1022.29
2023-05-17T11:04:23.566Z,1022.22
2023-05-17T11:05:23.553Z,1022.16
2023-05-17T11:06:25.686Z,1022.16
2023-05-17T11:07:23.418Z,1022.11
2023-05-17T11:08:23.426Z,1022.12
2023-05-17T11:09:23.428Z,1022.08
2023-05-17T11:10:23.408Z,1022.10
2023-05-17T11:11:23.433Z,1022.18
2023-05-17T11:12:23.401Z,1022.18
2023-05-17T11:13:24.125Z,1022.16
2023-05-17T11:14:23.365Z,1022.16
2023-05-17T11:15:23.343Z,1022.18
2023-05-17T11:16:23.347Z,1022.27
2023-05-17T11:17:23.320Z,1022.20
2023-05-17T11:18:31.311Z,1022.15
2023-05-17T11:19:24.323Z,1022.14
2023-05-17T11:20:23.336Z,1022.16
2023-05-17T11:21:23.253Z,1022.09
2023-05-17T11:22:23.252Z,1022.09
2023-05-17T11:23:23.346Z,1022.09
2023-05-17T11:24:23.240Z,1022.10
2023-05-17T11:25:23.174Z,1022.03
2023-05-17T11:26:23.215Z,1022.09
2023-05-17T11:27:23.158Z,1022.06
2023-05-17T11:28:23.170Z,1022.09
2023-05-17T11:29:23.191Z,1022.06
2023-05-17T11:30:23.164Z,1022.10
2023-05-17T11:31:23.097Z,1022.09
2023-05-17T11:32:23.138Z,1022.10
2023-05-17T11:33:33.235Z,1022.09
2023-05-17T11:34:24.156Z,1022.14
2023-05-17T11:35:23.070Z,1022.06
2023-05-17T11:36:23.105Z,1022.16
2023-05-17T11:37:23.016Z,1022.12
2023-05-17T11:38:23.049Z,1022.16
2023-05-17T11:39:22.982Z,1022.12
2023-05-17T11:40:23.024Z,1022.05
2023-05-17T11:41:26.894Z,1022.07
2023-05-17T11:42:22.976Z,1022.12
2023-05-17T11:43:22.981Z,1022.09
2023-05-17T11:44:22.967Z,1022.12
2023-05-17T11:45:24.816Z,1022.09
2023-05-17T11:46:22.969Z,1022.06
2023-05-17T11:47:23.002Z,1022.07
2023-05-17T11:48:23.056Z,1022.09
2023-05-17T11:49:34.375Z,1022.01
2023-05-17T11:50:23.894Z,1021.92
2023-05-17T11:51:24.968Z,1022.03
2023-05-17T11:52:22.872Z,1021.98
2023-05-17T11:53:22.826Z,1021.97
2023-05-17T11:54:22.812Z,1021.95
2023-05-17T11:55:22.799Z,1021.99
2023-05-17T11:56:29.019Z,1022.04
2023-05-17T11:57:23.859Z,1022.01
2023-05-17T11:58:22.781Z,1022.10
2023-05-17T11:59:22.722Z,1022.01
2023-05-17T12:00:22.728Z,1022.14
2023-05-17T12:01:22.719Z,1022.11
2023-05-17T12:02:22.715Z,1022.05
2023-05-17T12:03:22.723Z,1022.06
2023-05-17T12:04:22.718Z,1022.09
2023-05-17T12:05:22.641Z,1022.08
2023-05-17T12:06:22.761Z,1022.06
2023-05-17T12:07:22.608Z,1022.06
2023-05-17T12:08:22.708Z,1022.06
2023-05-17T12:09:22.646Z,1022.07
2023-05-17T12:10:22.617Z,1022.05
2023-05-17T12:11:22.621Z,1022.13
2023-05-17T12:12:22.607Z,1022.12
2023-05-17T12:13:22.546Z,1022.04
2023-05-17T12:14:22.568Z,1022.08
2023-05-17T12:17:48.669Z,1022.00
2023-05-17T12:18:36.021Z,1022.06
2023-05-17T12:18:54.833Z,1022.02
2023-05-17T12:19:54.961Z,1021.98
2023-05-17T12:20:54.582Z,1022.03
2023-05-17T12:21:54.599Z,1022.07
2023-05-17T12:22:54.687Z,1022.01
2023-05-17T12:23:54.569Z,1022.11
2023-05-17T12:25:39.099Z,1022.04
2023-05-17T12:25:54.572Z,1021.96
2023-05-17T12:26:56.943Z,1022.01
2023-05-17T12:27:54.558Z,1022.01
2023-05-17T12:28:54.591Z,1022.02
2023-05-17T12:29:54.489Z,1021.98
2023-05-17T12:30:54.477Z,1021.98
2023-05-17T12:31:54.471Z,1021.99
2023-05-17T12:32:54.534Z,1022.05
2023-05-17T12:33:54.525Z,1022.07
2023-05-17T12:34:54.432Z,1022.03
2023-05-17T12:35:54.408Z,1022.01
2023-05-17T12:37:10.213Z,1022.05
2023-05-17T12:37:55.488Z,1021.98
2023-05-17T12:38:54.342Z,1022.02
2023-05-17T12:39:54.382Z,1021.94
2023-05-17T12:40:54.356Z,1022.06
2023-05-17T12:41:54.343Z,1022.08
2023-05-17T12:42:54.325Z,1022.16
2023-05-17T12:44:06.133Z,1022.13
2023-05-17T12:44:55.283Z,1022.15
2023-05-17T12:45:54.300Z,1022.08
2023-05-17T12:46:54.343Z,1022.12
2023-05-17T12:47:54.311Z,1022.09
2023-05-17T12:50:53.505Z,1022.12
2023-05-17T12:50:58.683Z,1022.06
2023-05-17T12:51:58.699Z,1022.02
2023-05-17T12:52:58.669Z,1022.06
2023-05-17T12:53:58.611Z,1022.05
2023-05-17T12:54:58.618Z,1022.04
2023-05-17T12:55:58.605Z,1022.08
2023-05-17T12:56:58.593Z,1022.09
2023-05-17T12:57:58.689Z,1022.09
2023-05-17T12:58:58.585Z,1022.11
2023-05-17T12:59:58.520Z,1022.09
2023-05-17T13:00:58.575Z,1022.10
2023-05-17T13:01:58.488Z,1022.11